• Join FlightAware (Why Join?)
  • Login
  • US Flag 
11:22PM EST


 

Airport Tracker/Info


-or-


 

Live Flight TrackerFlight Track Log ✈ AAL832 ✈ 15-Aug-2013 ✈ KORD - KMIA

Flight Track Log - Related Links

Times and Time Zones

All times are in EDT time to prevent confusion due to time zone crossing. See the AAL832 flight status page for this flight to view local times or setup timezone preferences in your user account.

Time Position Orientation Groundspeed Altitude Reporting Facility
EDT Latitude Longitude Course Direction KTS MPH feet Rate Location/Type
05:30PM 41.9333 -87.9167 180° South 180 207 2,400  Level Chicago TRACON
05:31PM 41.8833 -87.9667 217° Southwest 236 272 4,300 1,260 Climbing Chicago TRACON
05:32PM 41.7648 -87.7798 180° South  Level Estimated
05:33PM 41.6547 -87.8375 201° Southwest  Level FlightAware Approximate
05:33PM 41.8094 -87.9964 197° South 261 300 5,200  Level Chicago Center
05:34PM 41.5464 -87.7737 176° South  Level Estimated
05:34PM 41.7322 -87.9869 175° South 275 316 8,000  Level Chicago Center
05:35PM 41.4382 -87.7101 180° South  Level Estimated
05:35PM 41.6544 -87.9592 165° South 290 334 10,800  Level Chicago Center
05:36PM 41.3299 -87.6468 180° South  Level Estimated
05:36PM 41.5650 -87.9406 171° South 326 375 13,000  Level Chicago Center
05:37PM 41.4619 -87.9328 177° South 357 411 15,400 2,280 Climbing Chicago Center
05:38PM 41.3514 -87.9244 177° South 383 441 17,800 2,460 Climbing Chicago Center
05:39PM 41.2147 -87.9136 177° South 405 466 20,600 2,340 Climbing Chicago Center
05:40PM 41.0997 -87.9100 179° South 412 474 22,700 1,800 Climbing Chicago Center
05:41PM 40.9819 -87.9036 178° South 421 484 24,400 1,620 Climbing Chicago Center
05:42PM 40.8594 -87.8967 178° South 435 501 26,100 1,500 Climbing Chicago Center
05:43PM 40.7350 -87.8900 178° South 445 512 27,500 1,380 Climbing Chicago Center
05:44PM 40.5808 -87.8819 178° South 460 529 29,000 1,260 Climbing Chicago Center
05:45PM 40.4486 -87.8764 178° South 473 544 30,200 1,320 Climbing Chicago Center
05:46PM 40.3164 -87.8697 178° South 476 548 31,800 1,620 Climbing Chicago Center
05:47PM 40.1806 -87.8656 179° South 468 539 33,600 1,380 Climbing Chicago Center
05:48PM 40.0758 -87.8608 178° South 467 537 34,600 660 Climbing Indianapolis Center
05:49PM 39.9236 -87.8539 178° South 460 529 35,000 600 Climbing Indianapolis Center
05:50PM 39.7969 -87.8489 178° South 459 528 35,900 900 Climbing Indianapolis Center
05:51PM 39.6728 -87.8417 177° South 453 521 36,900 480 Climbing Indianapolis Center
05:52PM 39.5483 -87.8350 178° South 451 519 37,000  Climbing Indianapolis Center
05:53PM 39.4233 -87.8308 179° South 450 518 37,000  Level Indianapolis Center
05:54PM 39.2903 -87.8253 178° South 450 518 37,000  Level Indianapolis Center
05:55PM 39.1658 -87.8183 178° South 447 514 37,000  Level Indianapolis Center
05:56PM 39.0156 -87.8108 178° South 448 516 37,000  Level Indianapolis Center
05:57PM 38.8931 -87.8058 178° South 443 510 37,000  Level Indianapolis Center
05:58PM 38.7694 -87.8011 178° South 443 510 37,000  Level Indianapolis Center
05:59PM 38.6478 -87.7956 178° South 439 505 37,000  Level Indianapolis Center
06:01PM 38.5258 -87.7892 178° South 439 505 37,000  Level Indianapolis Center
06:02PM 38.4028 -87.7833 178° South 442 509 37,000  Level Indianapolis Center
06:03PM 38.2544 -87.7772 178° South 447 514 37,000  Level Indianapolis Center
06:04PM 38.1308 -87.7717 178° South 445 512 37,000  Level Indianapolis Center
06:05PM 38.0061 -87.7658 178° South 447 514 37,000  Level Indianapolis Center
06:06PM 37.8825 -87.7353 169° South 459 528 37,000  Level Indianapolis Center
06:07PM 37.7578 -87.6583 154° Southeast 468 539 37,000  Level Indianapolis Center
06:08PM 37.6386 -87.5842 154° Southeast 471 542 37,000  Level Indianapolis Center
06:10PM 37.3822 -87.4289 154° Southeast 468 539 37,000  Level Indianapolis Center
06:11PM 37.2650 -87.3578 154° Southeast 467 537 37,000  Level Indianapolis Center
06:12PM 37.1469 -87.2869 154° Southeast 465 535 37,000  Level Indianapolis Center
06:13PM 37.0283 -87.2158 154° Southeast 468 539 37,000  Level Indianapolis Center
06:14PM 36.9097 -87.1442 154° Southeast 468 539 37,000  Level Indianapolis Center
06:15PM 36.7908 -87.0731 154° Southeast 470 541 37,000  Level Indianapolis Center
06:16PM 36.6719 -87.0014 154° Southeast 469 540 37,000  Level Indianapolis Center
06:17PM 36.5528 -86.9289 154° Southeast 470 541 37,000  Level Indianapolis Center
06:18PM 36.4119 -86.8447 154° Southeast 473 544 37,000  Level Indianapolis Center
06:19PM 36.2936 -86.7794 156° South 478 550 37,000  Level Indianapolis Center
06:20PM 36.1481 -86.6917 154° Southeast 493 567 37,000  Level Memphis Center
06:21PM 36.0275 -86.6331 159° South 480 552 37,000  Level Memphis Center
06:24PM 35.7356 -86.4869 158° South 487 560 37,000  Level Atlanta Center
06:25PM 35.6136 -86.4297 159° South 482 555 37,000  Level Atlanta Center
06:26PM 35.4917 -86.3700 158° South 474 545 37,000  Level Atlanta Center
06:27PM 35.3697 -86.3081 157° South 474 545 37,000  Level Atlanta Center
06:28PM 35.2478 -86.2489 158° South 468 539 37,000  Level Atlanta Center
06:29PM 35.1319 -86.1872 156° South 468 539 37,000  Level Atlanta Center
06:30PM 35.0203 -86.1386 160° South 468 539 37,000  Level Atlanta Center
06:31PM 34.8878 -86.0694 157° South 468 539 37,000  Level Atlanta Center
06:32PM 34.7656 -86.0086 158° South 473 544 37,000  Level Atlanta Center
06:33PM 34.6456 -85.9500 158° South 468 539 37,000  Level Atlanta Center
06:34PM 34.5253 -85.8944 159° South 468 539 37,000  Level Atlanta Center
06:35PM 34.4031 -85.8364 159° South 468 539 37,000  Level Atlanta Center
06:36PM 34.2786 -85.7861 162° South 468 539 37,000  Level Atlanta Center
06:37PM 34.1606 -85.7283 158° South 463 533 37,000  Level Atlanta Center
06:38PM 34.0361 -85.6706 159° South 470 541 37,000  Level Atlanta Center
06:39PM 33.9136 -85.6133 159° South 470 541 37,000  Level Atlanta Center
06:40PM 33.7911 -85.5561 159° South 470 541 37,000  Level Atlanta Center
06:41PM 33.6689 -85.4964 158° South 470 541 37,000  Level Atlanta Center
06:42PM 33.5461 -85.4419 160° South 465 535 37,000  Level Atlanta Center
06:43PM 33.4217 -85.3828 158° South 470 541 37,000  Level Atlanta Center
06:44PM 33.2992 -85.3286 160° South 470 541 37,000  Level Atlanta Center
06:45PM 33.1725 -85.2697 159° South 475 547 37,000  Level Atlanta Center
06:46PM 33.0603 -85.2161 158° South 475 547 37,000 300 Level Atlanta Center
06:47PM 32.9231 -85.1575 160° South 480 552 37,700 720 Climbing Atlanta Center
06:48PM 32.8000 -85.1261 168° South 480 552 38,500 600 Climbing Atlanta Center
06:49PM 32.6628 -85.0703 161° South 480 552 39,000 240 Climbing Atlanta Center
06:50PM 32.5442 -85.0294 164° South 469 540 39,000  Level Atlanta Center
06:51PM 32.4172 -84.9886 165° South 462 532 39,000  Level Atlanta Center
06:52PM 32.2986 -84.9481 164° South 457 526 39,000  Level Atlanta Center
06:53PM 32.1881 -84.9175 167° South 452 520 39,000  Level Atlanta Center
06:54PM 32.0694 -84.8747 163° South 452 520 39,000  Level Atlanta Center
06:56PM 31.8058 -84.7897 165° South 444 511 39,000  Level Jacksonville Center
06:57PM 31.6831 -84.7603 168° South 452 520 39,000  Level Jacksonville Center
06:58PM 31.5561 -84.7381 172° South 452 520 39,000  Level Jacksonville Center
06:59PM 31.4311 -84.7161 171° South 452 520 39,000  Level Jacksonville Center
07:00PM 31.3061 -84.6894 170° South 457 526 39,000  Level Jacksonville Center
07:01PM 31.1836 -84.6458 163° South 457 526 39,000  Level Jacksonville Center
07:02PM 31.0589 -84.5975 162° South 467 537 39,000  Level Jacksonville Center
07:03PM 30.9386 -84.5444 159° South 467 537 39,000  Level Jacksonville Center
07:04PM 30.8161 -84.4939 160° South 467 537 39,000  Level Jacksonville Center
07:05PM 30.6936 -84.4386 159° South 467 537 39,000  Level Jacksonville Center
07:06PM 30.5708 -84.3861 160° South 467 537 39,000  Level Jacksonville Center
07:07PM 30.4650 -84.3386 159° South 461 531 39,000 -60 Level Jacksonville Center
07:08PM 30.3531 -84.2719 153° Southeast 461 531 38,900  Descending Jacksonville Center
07:09PM 30.2411 -84.2006 151° Southeast 461 531 39,000  Climbing Jacksonville Center
07:10PM 30.1186 -84.1222 151° Southeast 455 524 39,000  Level Jacksonville Center
07:11PM 30.0067 -84.0511 151° Southeast 455 524 39,000 -60 Level Jacksonville Center
07:12PM 29.8964 -83.9803 151° Southeast 455 524 38,900 -60 Descending Jacksonville Center
07:13PM 29.7969 -83.9144 150° Southeast 462 532 38,900  Level Jacksonville Center
07:14PM 29.6847 -83.8417 151° Southeast 462 532 39,000  Climbing Jacksonville Center
07:15PM 29.5744 -83.7736 152° Southeast 457 526 38,900  Descending Jacksonville Center
07:16PM 29.4603 -83.6989 150° Southeast 457 526 39,000  Climbing Jacksonville Center
07:17PM 29.3500 -83.6289 151° Southeast 457 526 39,000  Level Jacksonville Center
07:18PM 29.2397 -83.5567 150° Southeast 457 526 39,000 -60 Level Jacksonville Center
07:19PM 29.1275 -83.4844 151° Southeast 457 526 38,900  Descending Jacksonville Center
07:20PM 29.0150 -83.4150 152° Southeast 457 526 39,000  Climbing Jacksonville Center
07:21PM 28.9067 -83.3433 150° Southeast 457 526 39,000 -60 Level Jacksonville Center
07:22PM 28.7942 -83.2717 151° Southeast 457 526 38,900 -60 Descending Jacksonville Center
07:23PM 28.6839 -83.2025 151° Southeast 457 526 38,900  Level Jacksonville Center
07:24PM 28.5692 -83.1336 152° Southeast 457 526 38,900  Level Jacksonville Center
07:25PM 28.4586 -83.0625 151° Southeast 457 526 38,900  Level Jacksonville Center
07:26PM 28.2717 -82.9469 151° Southeast 479 551 39,000  Climbing Miami Center
07:27PM 28.1578 -82.8747 151° Southeast 473 544 39,000  Level Miami Center
07:28PM 28.0339 -82.7978 151° Southeast 468 539 39,000 -60 Level Miami Center
07:29PM 27.9156 -82.7306 153° Southeast 468 539 38,900  Descending Miami Center
07:30PM 27.7992 -82.6728 156° South 463 533 39,000 -120 Climbing Miami Center
07:31PM 27.6847 -82.6131 155° Southeast 458 527 38,700 -600 Descending Miami Center
07:32PM 27.5683 -82.5464 153° Southeast 463 533 37,800 -1,200 Descending Miami Center
07:33PM 27.4519 -82.4844 155° Southeast 457 526 36,400 -1,680 Descending Miami Center
07:34PM 27.3458 -82.4208 152° Southeast 462 532 34,500 -1,980 Descending Miami Center
07:35PM 27.2414 -82.3178 139° Southeast 474 545 32,500 -1,920 Descending Miami Center
07:36PM 27.1408 -82.2128 137° Southeast 482 555 30,700 -1,440 Descending Miami Center
07:37PM 27.0381 -82.1100 138° Southeast 493 567 29,700 -1,020 Descending Miami Center
07:38PM 26.9353 -82.0125 140° Southeast 493 567 28,700 -1,020 Descending Miami Center
07:39PM 26.8386 -81.9128 137° Southeast 493 567 27,700 -1,020 Descending Miami Center
07:40PM 26.7417 -81.8156 138° Southeast 483 556 26,700 -1,020 Descending Miami Center
07:41PM 26.6489 -81.7186 137° Southeast 470 541 25,700 -1,020 Descending Miami Center
07:42PM 26.5558 -81.6267 139° Southeast 458 527 24,700 -1,020 Descending Miami Center
07:43PM 26.4731 -81.5444 138° Southeast 446 513 23,700 -1,680 Descending Miami Center
07:44PM 26.3861 -81.4553 137° Southeast 440 506 21,400 -2,280 Descending Miami Center
07:45PM 26.3011 -81.3708 138° Southeast 428 493 19,200 -2,340 Descending Miami Center
07:46PM 26.2097 -81.2794 138° Southeast 416 479 16,800 -2,340 Descending Miami Center
07:47PM 26.1286 -81.2000 139° Southeast 397 457 14,600 -2,220 Descending Miami Center
07:48PM 26.0697 -81.1469 141° Southeast 378 435 13,100 -2,160 Descending Miami Center
07:49PM 25.9989 -81.0658 134° Southeast 362 417 10,900 -1,500 Descending Miami Center
07:50PM 25.9753 -80.9472 102° East 328 377 10,000 -1,080 Descending Miami Center
07:51PM 25.9567 -80.8589 103° East 297 342 8,700 -1,380 Descending Miami Center
07:52PM 25.9381 -80.7775 104° East 296 341 7,400 -1,500 Descending Miami Center
07:53PM 25.9217 -80.6892 102° East 287 330 5,900 -1,260 Descending Miami Center
07:54PM 25.9031 -80.5939 102° East 276 318 4,800 -960 Descending Miami Center
07:55PM 25.8842 -80.5147 105° East 260 299 3,900 -960 Descending Miami Center
07:56PM 25.8714 -80.4428 101° East 256 295 2,900 -1,200 Descending Miami Center
07:57PM 25.8372 -80.3842 123° Southeast 194 223 1,500 -1,140 Descending Miami Center
07:58PM 25.8156 -80.3397 118° Southeast 140 161 700 -840 Descending Miami Center